createdAt,value
2022-12-24T00:00:01.353Z,1009.98
2022-12-24T00:10:01.303Z,1009.96
2022-12-24T00:20:01.979Z,1009.90
2022-12-24T00:30:00.992Z,1009.87
2022-12-24T00:40:01.916Z,1009.91
2022-12-24T00:50:00.170Z,1009.98
2022-12-24T01:00:01.378Z,1010.09
2022-12-24T01:10:00.854Z,1010.20
2022-12-24T01:20:01.624Z,1010.30
2022-12-24T01:30:01.139Z,1010.41
2022-12-24T01:40:02.365Z,1010.38
2022-12-24T01:50:01.270Z,1010.53
2022-12-24T02:00:01.283Z,1010.61
2022-12-24T02:10:02.698Z,1010.76
2022-12-24T02:20:02.310Z,1010.96
2022-12-24T02:30:02.717Z,1011.11
2022-12-24T02:40:01.316Z,1011.22
2022-12-24T02:50:02.366Z,1011.34
2022-12-24T03:00:01.298Z,1011.42
2022-12-24T03:10:00.950Z,1011.46
2022-12-24T03:20:01.314Z,1011.59
2022-12-24T03:30:01.182Z,1011.64
2022-12-24T03:40:00.204Z,1011.82
2022-12-24T03:50:01.306Z,1011.92
2022-12-24T04:00:01.009Z,1012.09
2022-12-24T04:10:00.989Z,1012.12
2022-12-24T04:20:03.357Z,1011.98
2022-12-24T04:30:01.024Z,1012.18
2022-12-24T04:40:01.314Z,1012.38
2022-12-24T04:50:00.141Z,1012.65
2022-12-24T05:00:01.469Z,1012.64
2022-12-24T05:10:01.040Z,1012.76
2022-12-24T05:20:00.199Z,1012.73
2022-12-24T05:30:01.205Z,1012.81
2022-12-24T05:40:01.919Z,1012.80
2022-12-24T05:50:01.663Z,1012.98
2022-12-24T06:00:01.127Z,1013.07
2022-12-24T06:10:00.177Z,1013.19
2022-12-24T06:20:01.254Z,1013.27
2022-12-24T06:30:02.219Z,1013.43
2022-12-24T06:40:01.430Z,1013.68
2022-12-24T06:50:02.188Z,1013.61
2022-12-24T07:00:01.029Z,1013.81
2022-12-24T07:10:01.090Z,1013.96
2022-12-24T07:20:01.108Z,1014.21
2022-12-24T07:30:01.333Z,1014.30
2022-12-24T07:40:01.369Z,1014.38
2022-12-24T07:50:01.099Z,1014.46
2022-12-24T08:00:00.814Z,1014.66
2022-12-24T08:10:01.075Z,1014.60
2022-12-24T08:20:01.028Z,1014.65
2022-12-24T08:30:00.151Z,1014.77
2022-12-24T08:40:00.190Z,1014.91
2022-12-24T08:50:00.981Z,1015.08
2022-12-24T09:00:00.141Z,1015.16
2022-12-24T09:10:01.038Z,1015.23
2022-12-24T09:20:01.107Z,1015.46
2022-12-24T09:30:01.409Z,1015.53
2022-12-24T09:40:01.099Z,1015.69
2022-12-24T09:50:01.355Z,1015.84
2022-12-24T10:00:01.145Z,1015.99
2022-12-24T10:10:01.374Z,1016.12
2022-12-24T10:20:01.674Z,1016.21
2022-12-24T10:30:02.889Z,1016.35
2022-12-24T10:40:03.193Z,1016.59
2022-12-24T10:50:00.161Z,1016.72
2022-12-24T11:00:01.283Z,1016.85
2022-12-24T11:10:03.473Z,1017.01
2022-12-24T11:20:00.199Z,1017.07
2022-12-24T11:30:03.053Z,1016.98
2022-12-24T11:40:00.186Z,1017.12
2022-12-24T11:50:17.461Z,1017.15
2022-12-24T12:00:00.180Z,1017.26
2022-12-24T12:10:00.142Z,1017.40
2022-12-24T12:20:01.505Z,1017.39
2022-12-24T12:30:00.984Z,1017.44
2022-12-24T12:40:01.088Z,1017.45
2022-12-24T12:50:01.948Z,1017.56
2022-12-24T13:00:01.348Z,1017.64
2022-12-24T13:10:01.989Z,1017.63
2022-12-24T13:20:03.042Z,1017.61
2022-12-24T13:30:07.103Z,1017.75
2022-12-24T13:40:01.344Z,1017.83
2022-12-24T13:50:01.086Z,1018.06
2022-12-24T14:00:02.225Z,1018.23
2022-12-24T14:10:01.188Z,1018.34
2022-12-24T14:20:02.657Z,1018.42
2022-12-24T14:30:01.070Z,1018.55
2022-12-24T14:40:01.073Z,1018.71
2022-12-24T14:50:01.115Z,1018.82
2022-12-24T15:00:02.496Z,1018.97
2022-12-24T15:10:01.442Z,1019.16
2022-12-24T15:20:01.536Z,1019.33
2022-12-24T15:30:00.139Z,1019.55
2022-12-24T15:40:01.253Z,1019.55
2022-12-24T15:50:01.303Z,1019.66
2022-12-24T16:00:01.266Z,1019.71
2022-12-24T16:10:01.273Z,1019.78
2022-12-24T16:20:01.051Z,1020.04
2022-12-24T16:30:00.155Z,1020.16
2022-12-24T16:40:01.309Z,1020.17
2022-12-24T16:50:01.074Z,1020.26
2022-12-24T17:00:01.044Z,1020.41
2022-12-24T17:10:01.418Z,1020.49
2022-12-24T17:20:01.039Z,1020.59
2022-12-24T17:30:01.211Z,1020.80
2022-12-24T17:40:02.021Z,1020.80
2022-12-24T17:50:01.232Z,1020.87
2022-12-24T18:00:00.982Z,1021.06
2022-12-24T18:10:01.008Z,1021.13
2022-12-24T18:20:01.663Z,1021.26
2022-12-24T18:30:01.081Z,1021.29
2022-12-24T18:40:01.262Z,1021.41
2022-12-24T18:50:01.040Z,1021.59
2022-12-24T19:00:00.991Z,1021.64
2022-12-24T19:10:01.511Z,1021.68
2022-12-24T19:20:00.208Z,1021.78
2022-12-24T19:30:01.228Z,1021.77
2022-12-24T19:40:01.258Z,1021.76
2022-12-24T19:50:01.027Z,1021.94
2022-12-24T20:00:01.238Z,1022.12
2022-12-24T20:10:00.182Z,1022.06
2022-12-24T20:20:02.841Z,1022.20
2022-12-24T20:30:00.965Z,1022.21
2022-12-24T20:50:01.499Z,1022.33
2022-12-24T21:00:00.197Z,1022.44
2022-12-24T21:10:00.178Z,1022.50
2022-12-24T21:20:01.036Z,1022.47
2022-12-24T21:30:01.234Z,1022.72
2022-12-24T21:40:00.190Z,1022.65
2022-12-24T21:50:01.117Z,1022.85
2022-12-24T22:00:02.331Z,1022.97
2022-12-24T22:10:00.980Z,1023.15
2022-12-24T22:20:01.099Z,1023.16
2022-12-24T22:30:01.041Z,1023.20
2022-12-24T22:40:01.070Z,1023.27
2022-12-24T22:50:01.284Z,1023.40
2022-12-24T23:00:01.257Z,1023.52
2022-12-24T23:10:00.151Z,1023.63
2022-12-24T23:20:01.620Z,1023.66
2022-12-24T23:30:01.047Z,1023.68
2022-12-24T23:40:01.348Z,1023.63
2022-12-24T23:50:01.087Z,1023.63
